Time;durP1;ratioP1;P1;durP2;ratioP2;P2;SDS_P1;SDS_P2;PMS_P1;PMS_P2;Temp;Humidity;BMP_temperature;BMP_pressure;BME280_temperature;BME280_humidity;BME280_pressure;Samples;Min_cycle;Max_cycle;Signal;HPM_P1;HPM_P2
2024/01/05 00:01:16;;;;;;;7.38;6.13;;;3.70;99.90;;;;;;5026770;28;20103;-87
2024/01/05 00:03:44;;;;;;;8.40;6.47;;;3.70;99.90;;;;;;5025257;28;20057;-85
2024/01/05 00:06:10;;;;;;;7.80;6.43;;;3.70;99.90;;;;;;5022644;28;20128;-85
2024/01/05 00:08:36;;;;;;;7.70;6.35;;;3.70;99.90;;;;;;5027509;28;20160;-85
2024/01/05 00:11:02;;;;;;;8.45;6.93;;;3.70;99.90;;;;;;5023052;28;20424;-84
2024/01/05 00:13:27;;;;;;;11.13;7.50;;;3.80;99.90;;;;;;5032864;28;20596;-83
2024/01/05 00:15:53;;;;;;;9.63;7.43;;;3.80;99.90;;;;;;5024473;28;20060;-82
2024/01/05 00:18:22;;;;;;;10.27;6.68;;;3.80;99.90;;;;;;5017713;28;20033;-89
2024/01/05 00:20:47;;;;;;;12.15;8.55;;;3.80;99.90;;;;;;5021284;28;20512;-84
2024/01/05 00:23:16;;;;;;;10.23;7.22;;;3.80;99.90;;;;;;5016609;28;20061;-86
2024/01/05 00:25:42;;;;;;;11.75;7.13;;;3.80;99.90;;;;;;5021845;28;20060;-82
2024/01/05 00:28:09;;;;;;;15.43;7.20;;;3.90;99.90;;;;;;5028780;28;20505;-83
2024/01/05 00:30:35;;;;;;;8.52;6.90;;;3.80;99.90;;;;;;5029609;28;20017;-82
2024/01/05 00:33:00;;;;;;;10.73;6.95;;;3.90;99.90;;;;;;5015454;28;20648;-83
2024/01/05 00:35:26;;;;;;;10.43;6.97;;;3.90;99.90;;;;;;5028220;28;20038;-86
2024/01/05 00:37:52;;;;;;;10.32;7.07;;;3.90;99.90;;;;;;5023921;28;20083;-83
2024/01/05 00:40:18;;;;;;;26.05;9.60;;;3.90;99.90;;;;;;5022960;28;20029;-86
2024/01/05 00:42:45;;;;;;;11.23;6.43;;;3.90;99.90;;;;;;5031205;28;20557;-82
2024/01/05 00:45:10;;;;;;;8.88;6.88;;;3.90;99.90;;;;;;5020661;28;20060;-83
2024/01/05 00:47:36;;;;;;;11.07;6.80;;;4.00;99.90;;;;;;5024179;28;20025;-83
2024/01/05 00:50:01;;;;;;;13.60;6.88;;;4.00;99.90;;;;;;5016793;28;20033;-85
2024/01/05 00:52:27;;;;;;;12.73;6.78;;;4.00;99.90;;;;;;5024346;28;20320;-88
2024/01/05 00:54:54;;;;;;;10.93;7.35;;;4.00;99.90;;;;;;5017996;28;20561;-86
2024/01/05 00:57:19;;;;;;;8.13;6.55;;;4.00;99.90;;;;;;5022867;28;20029;-84
2024/01/05 00:59:45;;;;;;;9.68;6.15;;;4.00;99.90;;;;;;5021080;28;20075;-86
2024/01/05 01:02:11;;;;;;;10.82;6.47;;;4.10;99.90;;;;;;5021318;28;20071;-84
2024/01/05 01:04:37;;;;;;;13.27;6.60;;;4.10;99.90;;;;;;5023357;28;20065;-85
2024/01/05 01:07:04;;;;;;;9.88;6.43;;;4.10;99.90;;;;;;5024897;28;20115;-85
2024/01/05 01:09:33;;;;;;;9.63;5.55;;;4.10;99.90;;;;;;5020583;28;20025;-90
2024/01/05 01:11:59;;;;;;;16.60;7.28;;;4.00;99.90;;;;;;5023799;28;20024;-84
2024/01/05 01:14:24;;;;;;;15.57;7.25;;;4.00;99.90;;;;;;5028048;28;20037;-84
2024/01/05 01:16:51;;;;;;;18.23;7.75;;;4.10;99.90;;;;;;5018810;28;20088;-85
2024/01/05 01:19:16;;;;;;;17.60;8.35;;;4.10;99.90;;;;;;5024676;28;20033;-82
2024/01/05 01:21:42;;;;;;;21.75;9.63;;;4.10;99.90;;;;;;5022986;28;20033;-84
2024/01/05 01:24:10;;;;;;;19.70;9.10;;;4.10;99.90;;;;;;5024402;28;20025;-90
2024/01/05 01:26:38;;;;;;;17.85;9.13;;;4.10;99.90;;;;;;5022142;28;20041;-84
2024/01/05 01:29:08;;;;;;;15.13;8.88;;;4.10;99.90;;;;;;5021888;28;20083;-83
2024/01/05 01:31:34;;;;;;;17.42;8.80;;;4.10;99.90;;;;;;5024609;28;20497;-95
2024/01/05 01:33:59;;;;;;;21.52;9.50;;;4.20;99.90;;;;;;5022674;28;20129;-85
2024/01/05 01:36:25;;;;;;;23.90;10.13;;;4.20;99.90;;;;;;5039401;28;20025;-81
2024/01/05 01:38:51;;;;;;;20.80;9.95;;;4.20;99.90;;;;;;5021301;28;20040;-84
2024/01/05 01:41:16;;;;;;;33.13;9.43;;;4.30;99.90;;;;;;5020911;28;20033;-83
2024/01/05 01:43:47;;;;;;;24.45;10.23;;;4.30;99.90;;;;;;5029445;28;20591;-84
2024/01/05 01:46:13;;;;;;;22.95;8.88;;;4.30;99.90;;;;;;5022966;28;20226;-83
2024/01/05 01:48:40;;;;;;;18.65;10.18;;;4.30;99.90;;;;;;5024088;28;20025;-85
2024/01/05 01:51:06;;;;;;;14.68;8.68;;;4.30;99.90;;;;;;5020261;28;20263;-85
2024/01/05 01:53:32;;;;;;;20.60;8.73;;;4.30;99.90;;;;;;5026892;28;20318;-86
2024/01/05 01:55:58;;;;;;;26.58;10.18;;;4.30;99.90;;;;;;5022636;28;20037;-84
2024/01/05 01:58:25;;;;;;;22.27;10.60;;;4.30;99.90;;;;;;5025144;28;20021;-86
2024/01/05 02:00:51;;;;;;;22.83;10.20;;;4.40;99.90;;;;;;5023663;28;20466;-83
2024/01/05 02:03:17;;;;;;;38.08;12.10;;;4.40;99.90;;;;;;5028275;28;20052;-85
2024/01/05 02:05:47;;;;;;;28.45;10.02;;;4.40;99.90;;;;;;5028937;28;20115;-91
2024/01/05 02:08:16;;;;;;;21.58;10.57;;;4.40;99.90;;;;;;5029256;28;20037;-91
2024/01/05 02:10:43;;;;;;;30.10;10.23;;;4.40;99.90;;;;;;5023473;28;20041;-84
2024/01/05 02:13:09;;;;;;;27.70;10.52;;;4.40;99.90;;;;;;5022440;28;20065;-84
2024/01/05 02:15:34;;;;;;;27.13;11.90;;;4.40;99.90;;;;;;5024535;28;20158;-84
2024/01/05 02:18:11;;;;;;;34.60;12.45;;;4.40;99.90;;;;;;5026430;28;20605;-85
2024/01/05 02:20:36;;;;;;;33.25;10.90;;;4.40;99.90;;;;;;5020516;28;20021;-85
2024/01/05 02:23:08;;;;;;;19.77;9.35;;;4.40;99.90;;;;;;5025308;28;20024;-85
2024/01/05 02:25:34;;;;;;;29.42;10.55;;;4.40;99.90;;;;;;5025013;28;20485;-86
2024/01/05 02:28:01;;;;;;;24.25;10.90;;;4.40;99.90;;;;;;5026691;28;20521;-85
2024/01/05 02:30:26;;;;;;;18.27;8.65;;;4.40;99.90;;;;;;5032640;28;20044;-84
2024/01/05 02:32:52;;;;;;;24.00;9.70;;;4.40;99.90;;;;;;5022024;28;20030;-86
2024/01/05 02:35:18;;;;;;;18.58;9.45;;;4.40;99.90;;;;;;5021156;28;20038;-85
2024/01/05 02:37:43;;;;;;;19.30;9.15;;;4.40;99.90;;;;;;5026558;28;20029;-84
2024/01/05 02:40:12;;;;;;;24.85;9.10;;;4.40;99.90;;;;;;5021828;28;20031;-90
2024/01/05 02:42:39;;;;;;;22.17;8.73;;;4.50;99.90;;;;;;5026781;28;20040;-87
2024/01/05 02:45:05;;;;;;;16.05;8.05;;;4.50;99.90;;;;;;5022835;28;20060;-85
2024/01/05 02:47:30;;;;;;;15.95;7.45;;;4.50;99.90;;;;;;5026438;28;20382;-84
2024/01/05 02:49:56;;;;;;;13.73;8.90;;;4.50;99.90;;;;;;5025844;28;20025;-85
2024/01/05 02:52:22;;;;;;;13.27;7.53;;;4.50;99.90;;;;;;5024813;28;20122;-86
2024/01/05 02:54:47;;;;;;;17.10;7.78;;;4.50;99.90;;;;;;5025677;28;20127;-84
2024/01/05 02:57:13;;;;;;;19.42;7.38;;;4.50;99.90;;;;;;5025712;28;20025;-85
2024/01/05 03:03:51;;;;;;;20.40;9.10;;;4.50;99.90;;;;;;5007200;28;20080;-85
2024/01/05 03:06:18;;;;;;;14.68;7.13;;;4.50;99.90;;;;;;5019982;28;20046;-84
2024/01/05 03:08:44;;;;;;;11.50;7.05;;;4.50;99.90;;;;;;5026375;28;20116;-85
2024/01/05 03:11:10;;;;;;;16.98;7.35;;;4.50;99.90;;;;;;5023856;28;20099;-85
2024/01/05 03:13:39;;;;;;;15.88;7.00;;;4.50;99.90;;;;;;5025648;28;20029;-90
2024/01/05 03:16:05;;;;;;;14.52;7.78;;;4.50;99.90;;;;;;5019261;28;20034;-85
2024/01/05 03:18:31;;;;;;;18.38;8.43;;;4.50;99.90;;;;;;5025484;28;20076;-85
2024/01/05 03:20:57;;;;;;;17.67;8.80;;;4.50;99.90;;;;;;5030159;28;20377;-84
2024/01/05 03:23:22;;;;;;;19.48;8.68;;;4.50;99.90;;;;;;5020424;28;20196;-85
2024/01/05 03:25:48;;;;;;;20.35;9.27;;;4.40;99.90;;;;;;5022242;28;20033;-85
2024/01/05 03:28:14;;;;;;;17.08;7.60;;;4.40;99.90;;;;;;5035124;28;20094;-84
2024/01/05 03:30:41;;;;;;;12.65;7.57;;;4.40;99.90;;;;;;5019912;28;20026;-84
2024/01/05 03:33:10;;;;;;;17.40;7.38;;;4.40;99.90;;;;;;5024428;28;20092;-90
2024/01/05 03:35:36;;;;;;;27.88;9.57;;;4.40;99.90;;;;;;5023206;28;20032;-84
2024/01/05 03:38:04;;;;;;;16.77;7.35;;;4.40;99.90;;;;;;5030780;28;20030;-84
2024/01/05 03:40:29;;;;;;;14.48;7.18;;;4.40;99.90;;;;;;5025812;28;20567;-85
2024/01/05 03:42:56;;;;;;;17.52;7.93;;;4.40;99.90;;;;;;5025399;28;20029;-84
2024/01/05 03:45:21;;;;;;;19.52;7.28;;;4.40;99.90;;;;;;5025017;28;20409;-83
2024/01/05 03:47:47;;;;;;;17.40;6.18;;;4.40;99.90;;;;;;5019398;28;20026;-85
2024/01/05 03:50:12;;;;;;;22.80;7.45;;;4.50;99.90;;;;;;5024384;28;20477;-86
2024/01/05 03:52:38;;;;;;;18.17;6.38;;;4.50;99.90;;;;;;5024344;28;20026;-86
2024/01/05 03:55:04;;;;;;;21.25;7.65;;;4.60;99.90;;;;;;5019118;28;20398;-86
2024/01/05 03:57:30;;;;;;;16.85;7.25;;;4.60;99.90;;;;;;5015671;28;20025;-85
2024/01/05 03:59:56;;;;;;;27.55;8.52;;;4.70;99.90;;;;;;5021517;28;20030;-87
2024/01/05 04:02:21;;;;;;;18.23;6.60;;;4.70;99.90;;;;;;5026814;28;20436;-84
2024/01/05 04:04:47;;;;;;;17.38;6.40;;;4.80;99.90;;;;;;5023091;28;20428;-85
2024/01/05 04:07:12;;;;;;;26.35;8.20;;;4.80;99.90;;;;;;5017578;28;20033;-83
2024/01/05 04:09:38;;;;;;;20.75;7.78;;;4.80;99.90;;;;;;5024069;28;20497;-86
2024/01/05 04:12:04;;;;;;;17.42;7.07;;;4.80;99.90;;;;;;5024006;28;20017;-85
2024/01/05 04:14:30;;;;;;;21.77;6.68;;;4.80;99.90;;;;;;5025708;28;20065;-84
2024/01/05 04:16:56;;;;;;;10.68;6.32;;;4.80;99.90;;;;;;5024184;28;20079;-86
2024/01/05 04:19:22;;;;;;;19.88;6.72;;;4.80;99.90;;;;;;5023588;28;20124;-85
2024/01/05 04:21:48;;;;;;;12.05;5.65;;;4.80;99.90;;;;;;5024743;28;20393;-85
2024/01/05 04:24:13;;;;;;;13.80;5.88;;;4.80;99.90;;;;;;5017536;28;20357;-86
2024/01/05 04:26:39;;;;;;;13.68;6.68;;;4.80;99.90;;;;;;5023313;28;20033;-87
2024/01/05 04:29:05;;;;;;;13.35;5.90;;;4.80;99.90;;;;;;5021514;28;20028;-85
2024/01/05 04:31:30;;;;;;;22.45;5.03;;;4.80;99.90;;;;;;5027195;28;20120;-86
2024/01/05 04:33:56;;;;;;;17.90;5.10;;;4.80;99.90;;;;;;5014947;28;20101;-84
2024/01/05 04:36:21;;;;;;;23.85;6.72;;;4.80;99.90;;;;;;5020140;28;20022;-85
2024/01/05 04:38:48;;;;;;;18.25;5.72;;;4.80;99.90;;;;;;5019435;28;20025;-86
2024/01/05 04:41:15;;;;;;;15.30;4.85;;;4.90;99.90;;;;;;5022958;28;20363;-90
2024/01/05 04:43:43;;;;;;;18.55;5.47;;;4.90;99.90;;;;;;5021398;28;20029;-86
2024/01/05 04:46:09;;;;;;;21.92;6.40;;;4.90;99.90;;;;;;5017388;28;20049;-84
2024/01/05 04:48:34;;;;;;;18.42;6.47;;;4.90;99.90;;;;;;5021723;28;20133;-85
2024/01/05 04:51:01;;;;;;;13.18;5.13;;;4.90;99.90;;;;;;5018590;28;20053;-83
2024/01/05 04:53:26;;;;;;;22.80;5.00;;;4.90;99.90;;;;;;5017706;28;20056;-85
2024/01/05 04:55:53;;;;;;;22.92;6.28;;;5.00;99.90;;;;;;5024037;28;20069;-86
2024/01/05 04:58:19;;;;;;;18.20;6.10;;;5.00;99.90;;;;;;5021891;28;20068;-87
2024/01/05 05:00:48;;;;;;;15.57;5.72;;;4.90;99.90;;;;;;5019257;28;20030;-85
2024/01/05 05:03:13;;;;;;;26.77;6.38;;;5.00;99.90;;;;;;5027837;28;20592;-86
2024/01/05 05:05:40;;;;;;;28.95;8.15;;;4.90;99.90;;;;;;5023179;28;20088;-86
2024/01/05 05:08:10;;;;;;;17.88;5.75;;;5.00;99.90;;;;;;5020648;28;20061;-86
2024/01/05 05:10:39;;;;;;;22.35;5.88;;;5.00;99.90;;;;;;5019754;28;20026;-84
2024/01/05 05:13:05;;;;;;;13.07;5.47;;;4.90;99.90;;;;;;5023656;28;20029;-85
2024/01/05 05:15:31;;;;;;;14.85;4.93;;;5.00;99.90;;;;;;5022228;28;20033;-86
2024/01/05 05:17:56;;;;;;;18.27;6.55;;;5.00;99.90;;;;;;5024645;28;20022;-85
2024/01/05 05:20:22;;;;;;;22.20;6.22;;;5.00;99.90;;;;;;5019997;28;20548;-86
2024/01/05 05:22:48;;;;;;;23.88;6.28;;;5.00;99.90;;;;;;5022866;28;20056;-84
2024/01/05 05:25:14;;;;;;;16.40;5.65;;;5.00;99.90;;;;;;5024179;28;20033;-85
2024/01/05 05:27:39;;;;;;;18.02;5.47;;;5.00;99.90;;;;;;5024043;28;20026;-90
2024/01/05 05:30:06;;;;;;;18.23;6.55;;;5.00;99.90;;;;;;5021556;28;20026;-85
2024/01/05 05:32:32;;;;;;;20.85;6.47;;;5.00;99.90;;;;;;5019448;28;20552;-84
2024/01/05 05:34:58;;;;;;;16.65;6.60;;;5.10;99.90;;;;;;5021904;28;20117;-83
2024/01/05 05:37:24;;;;;;;22.00;6.57;;;5.10;99.90;;;;;;5021860;28;20144;-87
2024/01/05 05:39:49;;;;;;;28.73;5.95;;;5.10;99.90;;;;;;5014634;28;20044;-81
2024/01/05 05:42:15;;;;;;;20.13;6.72;;;5.20;99.90;;;;;;5017694;28;20109;-85
2024/01/05 05:44:40;;;;;;;17.42;6.55;;;5.20;99.90;;;;;;5016347;28;20071;-84
2024/01/05 05:47:06;;;;;;;15.05;6.20;;;5.20;99.90;;;;;;5015486;28;20033;-83
2024/01/05 05:49:32;;;;;;;16.60;7.15;;;5.20;99.90;;;;;;5018123;28;20467;-89
2024/01/05 05:51:57;;;;;;;24.23;7.03;;;5.20;99.90;;;;;;5019563;28;20520;-83
2024/01/05 05:54:23;;;;;;;28.50;6.50;;;5.20;99.90;;;;;;5013624;28;20037;-81
2024/01/05 05:56:48;;;;;;;19.48;5.75;;;5.20;99.90;;;;;;5019823;28;20036;-84
2024/01/05 05:59:14;;;;;;;20.17;7.65;;;5.20;99.90;;;;;;5018350;28;20441;-84
2024/01/05 06:01:39;;;;;;;18.45;6.00;;;5.20;99.90;;;;;;5016295;28;20029;-83
2024/01/05 06:04:07;;;;;;;22.02;6.32;;;5.20;99.90;;;;;;5019315;28;20039;-85
2024/01/05 06:06:33;;;;;;;17.33;5.75;;;5.20;99.90;;;;;;5027980;28;20026;-85
2024/01/05 06:08:59;;;;;;;22.77;6.13;;;5.20;99.90;;;;;;5024741;28;20363;-83
2024/01/05 06:11:28;;;;;;;25.23;6.40;;;5.20;99.90;;;;;;5019345;28;20491;-85
2024/01/05 06:13:56;;;;;;;13.80;5.07;;;5.30;99.90;;;;;;5012017;28;20095;-91
2024/01/05 06:16:21;;;;;;;17.65;6.97;;;5.30;99.90;;;;;;5022445;28;20049;-88
2024/01/05 06:18:48;;;;;;;21.60;6.63;;;5.40;99.90;;;;;;5022876;28;20120;-87
2024/01/05 06:21:13;;;;;;;21.02;7.55;;;5.40;99.90;;;;;;5024408;28;20114;-87
2024/01/05 06:23:39;;;;;;;20.08;8.02;;;5.30;99.90;;;;;;5020596;28;20530;-86
2024/01/05 06:26:05;;;;;;;30.48;9.98;;;5.30;99.90;;;;;;5017977;28;20431;-85
2024/01/05 06:28:30;;;;;;;29.75;11.75;;;5.10;99.90;;;;;;5019582;28;20105;-85
2024/01/05 06:30:56;;;;;;;22.35;10.75;;;5.10;99.90;;;;;;5021740;28;20041;-85
2024/01/05 06:33:22;;;;;;;18.45;10.30;;;5.00;99.90;;;;;;5018157;28;20084;-87
2024/01/05 06:35:48;;;;;;;24.05;10.32;;;5.00;99.90;;;;;;5022537;28;20061;-86
2024/01/05 06:38:14;;;;;;;22.45;10.50;;;4.90;99.90;;;;;;5019890;28;20128;-85
2024/01/05 06:40:39;;;;;;;25.05;12.68;;;4.90;99.90;;;;;;5027596;28;20112;-86
2024/01/05 06:43:05;;;;;;;28.83;12.20;;;4.80;99.90;;;;;;5016861;28;20053;-85
2024/01/05 06:45:30;;;;;;;25.73;11.95;;;4.80;99.90;;;;;;5023228;28;20406;-86
2024/01/05 06:47:56;;;;;;;29.85;12.63;;;4.80;99.90;;;;;;5025877;28;20022;-86
2024/01/05 06:50:24;;;;;;;34.35;14.00;;;4.80;99.90;;;;;;5023510;28;20116;-87
2024/01/05 06:52:50;;;;;;;27.60;12.55;;;4.80;99.90;;;;;;5021048;28;20099;-85
2024/01/05 06:55:15;;;;;;;28.65;12.77;;;4.70;99.90;;;;;;5024669;28;20041;-86
2024/01/05 06:57:41;;;;;;;25.95;13.40;;;4.70;99.90;;;;;;5023839;28;20036;-86
2024/01/05 07:00:09;;;;;;;37.65;16.67;;;4.60;99.90;;;;;;5034680;28;20025;-88
2024/01/05 07:02:35;;;;;;;41.47;16.70;;;4.60;99.90;;;;;;5024094;28;20029;-85
2024/01/05 07:05:03;;;;;;;28.90;14.75;;;4.50;99.90;;;;;;5017903;28;20052;-85
2024/01/05 07:07:30;;;;;;;40.70;15.57;;;4.50;99.90;;;;;;5018385;28;20490;-85
2024/01/05 07:09:56;;;;;;;29.92;14.60;;;4.40;99.90;;;;;;5025345;28;20032;-85
2024/01/05 07:12:22;;;;;;;28.83;14.23;;;4.40;99.90;;;;;;5033123;28;20498;-87
2024/01/05 07:14:48;;;;;;;30.05;14.07;;;4.40;99.90;;;;;;5014900;28;20076;-85
2024/01/05 07:17:13;;;;;;;24.50;13.35;;;4.40;99.90;;;;;;5020761;28;20029;-85
2024/01/05 07:19:40;;;;;;;32.35;14.18;;;4.40;99.90;;;;;;5027508;28;20030;-85
2024/01/05 07:22:06;;;;;;;42.00;15.27;;;4.50;99.90;;;;;;5027363;28;20025;-85
2024/01/05 07:24:37;;;;;;;24.73;13.73;;;4.50;99.90;;;;;;5023274;28;20093;-85
2024/01/05 07:27:05;;;;;;;39.67;16.08;;;4.50;99.90;;;;;;5027142;28;20041;-86
2024/01/05 07:29:31;;;;;;;40.38;15.85;;;4.40;99.90;;;;;;5020146;28;20064;-85
2024/01/05 07:31:57;;;;;;;33.90;16.15;;;4.50;99.90;;;;;;5018705;28;20122;-85
2024/01/05 07:34:24;;;;;;;40.80;18.25;;;4.50;99.90;;;;;;5017380;28;20044;-87
2024/01/05 07:36:50;;;;;;;34.88;18.10;;;4.50;99.90;;;;;;5011551;28;20159;-85
2024/01/05 07:39:15;;;;;;;42.50;18.73;;;4.50;99.90;;;;;;5022364;28;20488;-87
2024/01/05 07:41:41;;;;;;;44.60;20.17;;;4.40;99.90;;;;;;5019904;28;20116;-85
2024/01/05 07:44:09;;;;;;;41.17;18.92;;;4.40;99.90;;;;;;5021259;28;20033;-87
2024/01/05 07:46:45;;;;;;;38.83;18.50;;;4.40;99.90;;;;;;5028102;28;20383;-85
2024/01/05 07:49:10;;;;;;;41.58;19.75;;;4.40;99.90;;;;;;5030205;28;20454;-85
2024/01/05 07:51:36;;;;;;;53.72;22.00;;;4.30;99.90;;;;;;5012797;28;20041;-85
2024/01/05 07:54:02;;;;;;;44.67;22.15;;;4.30;99.90;;;;;;5021889;28;20398;-87
2024/01/05 07:56:27;;;;;;;57.40;25.88;;;4.30;99.90;;;;;;5029414;28;20465;-85
2024/01/05 07:58:53;;;;;;;54.38;22.50;;;4.30;99.90;;;;;;5020896;28;20029;-86
2024/01/05 08:01:19;;;;;;;68.65;27.38;;;4.30;99.90;;;;;;5017247;28;20033;-85
2024/01/05 08:03:46;;;;;;;61.70;24.45;;;4.30;99.90;;;;;;5024308;28;20087;-85
2024/01/05 08:06:16;;;;;;;62.83;25.95;;;4.30;99.90;;;;;;5022070;28;20049;-85
2024/01/05 08:08:46;;;;;;;62.15;24.80;;;4.30;99.90;;;;;;5022438;28;20131;-85
2024/01/05 08:11:12;;;;;;;54.38;22.85;;;4.30;99.90;;;;;;5020683;28;20029;-86
2024/01/05 08:13:39;;;;;;;57.17;25.95;;;4.30;99.90;;;;;;5023841;28;20037;-85
2024/01/05 08:16:07;;;;;;;67.55;26.42;;;4.30;99.90;;;;;;5026265;28;20435;-86
2024/01/05 08:18:34;;;;;;;51.03;23.98;;;4.30;99.90;;;;;;5022846;28;20106;-85
2024/01/05 08:21:00;;;;;;;49.53;23.67;;;4.20;99.90;;;;;;5022392;28;20121;-85
2024/01/05 08:23:26;;;;;;;63.05;25.48;;;4.20;99.90;;;;;;5022345;28;20124;-86
2024/01/05 08:25:51;;;;;;;43.92;21.55;;;4.20;99.90;;;;;;5024231;28;20049;-86
2024/01/05 08:28:17;;;;;;;53.38;21.73;;;4.20;99.90;;;;;;5022087;28;20030;-85
2024/01/05 08:30:42;;;;;;;36.90;18.35;;;4.20;99.90;;;;;;5019420;28;20036;-86
2024/01/05 08:33:08;;;;;;;39.40;18.75;;;4.20;99.90;;;;;;5022619;28;20321;-86
2024/01/05 08:35:35;;;;;;;42.90;19.48;;;4.20;99.90;;;;;;5024411;28;20029;-85
2024/01/05 08:38:00;;;;;;;36.60;18.38;;;4.20;99.90;;;;;;5026344;28;20030;-84
2024/01/05 08:40:28;;;;;;;48.58;21.70;;;4.20;99.90;;;;;;5023699;28;20075;-85
2024/01/05 08:42:54;;;;;;;40.55;18.40;;;4.20;99.90;;;;;;5020326;28;20075;-86
2024/01/05 08:45:20;;;;;;;37.67;18.10;;;4.20;99.90;;;;;;5024271;28;20773;-85
2024/01/05 08:47:46;;;;;;;49.22;23.27;;;4.20;99.90;;;;;;5024853;28;20037;-85
2024/01/05 08:50:12;;;;;;;56.58;24.40;;;4.20;99.90;;;;;;5031066;28;20068;-86
2024/01/05 08:52:37;;;;;;;56.45;25.75;;;4.20;99.90;;;;;;5018524;28;20033;-86
2024/01/05 08:55:04;;;;;;;50.65;22.50;;;4.20;99.90;;;;;;5015779;28;20061;-86
2024/01/05 08:57:30;;;;;;;53.15;23.77;;;4.20;99.90;;;;;;5024663;28;20033;-87
2024/01/05 08:59:55;;;;;;;43.65;20.50;;;4.20;99.90;;;;;;5026344;28;20390;-87
2024/01/05 09:02:22;;;;;;;51.28;23.73;;;4.20;99.90;;;;;;5022731;28;20071;-85
2024/01/05 09:04:48;;;;;;;51.65;22.85;;;4.10;99.90;;;;;;5014774;28;20049;-84
2024/01/05 09:07:14;;;;;;;55.95;24.25;;;4.10;99.90;;;;;;5022408;28;20379;-84
2024/01/05 09:09:39;;;;;;;57.45;22.88;;;4.10;99.90;;;;;;5023653;28;20064;-84
2024/01/05 09:12:06;;;;;;;53.05;21.90;;;4.10;99.90;;;;;;5026191;28;20079;-84
2024/01/05 09:14:32;;;;;;;41.33;18.25;;;4.10;99.90;;;;;;5016690;28;20482;-83
2024/01/05 09:16:58;;;;;;;45.03;15.25;;;4.20;99.90;;;;;;5024792;28;20041;-84
2024/01/05 09:19:26;;;;;;;36.13;13.02;;;4.30;99.90;;;;;;5026629;28;20076;-89
2024/01/05 09:21:53;;;;;;;31.63;11.43;;;4.40;99.90;;;;;;5023819;28;20058;-86
2024/01/05 09:24:19;;;;;;;26.25;7.10;;;4.50;99.90;;;;;;5008226;28;20030;-86
2024/01/05 09:26:46;;;;;;;24.45;6.47;;;4.70;99.90;;;;;;5025178;28;20112;-89
2024/01/05 09:29:12;;;;;;;22.05;5.28;;;4.90;99.90;;;;;;5018053;28;20026;-90
2024/01/05 09:31:37;;;;;;;19.38;5.07;;;5.00;99.90;;;;;;5019588;28;20029;-89
2024/01/05 09:34:03;;;;;;;22.23;5.43;;;5.20;99.90;;;;;;5015475;28;20084;-82
2024/01/05 09:36:28;;;;;;;22.27;6.10;;;5.30;99.90;;;;;;5025900;28;20033;-85
2024/01/05 09:38:54;;;;;;;38.00;7.32;;;5.50;99.90;;;;;;5032835;28;20432;-86
2024/01/05 09:41:19;;;;;;;29.15;6.03;;;5.70;99.90;;;;;;5023736;28;20045;-85
2024/01/05 09:43:48;;;;;;;28.38;10.68;;;5.70;99.90;;;;;;5009846;28;20116;-89
2024/01/05 09:46:15;;;;;;;54.38;22.58;;;5.90;99.90;;;;;;5012549;28;20029;-91
2024/01/05 09:48:41;;;;;;;44.95;22.05;;;5.80;99.90;;;;;;5014286;28;20494;-88
2024/01/05 09:51:10;;;;;;;48.08;21.45;;;5.60;99.90;;;;;;5021234;28;20040;-89
2024/01/05 09:53:36;;;;;;;41.83;21.58;;;5.50;99.90;;;;;;5017921;28;20033;-88
2024/01/05 09:56:03;;;;;;;45.67;23.05;;;5.30;99.90;;;;;;5019587;28;20041;-88
2024/01/05 09:58:29;;;;;;;41.92;22.67;;;5.20;99.90;;;;;;5021478;28;20057;-87
2024/01/05 10:01:00;;;;;;;59.67;31.02;;;5.10;99.90;;;;;;5018151;28;20079;-88
2024/01/05 10:03:27;;;;;;;43.95;23.65;;;5.00;99.90;;;;;;5022611;28;20029;-87
2024/01/05 10:05:53;;;;;;;48.97;25.10;;;4.90;99.90;;;;;;5017494;28;20517;-89
2024/01/05 10:08:21;;;;;;;45.97;24.70;;;4.80;99.90;;;;;;5022940;28;20022;-87
2024/01/05 10:11:07;;;;;;;96.97;24.35;;;4.80;99.90;;;;;;5022121;28;20032;-86
2024/01/05 10:13:35;;;;;;;;;;;4.70;99.90;;;;;;5021764;28;20387;-86
2024/01/05 10:16:02;;;;;;;42.50;24.15;;;4.70;99.90;;;;;;5025987;28;19964;-87
2024/01/05 10:18:29;;;;;;;48.33;25.38;;;4.70;99.90;;;;;;5034113;28;20041;-87
2024/01/05 10:20:57;;;;;;;51.22;26.77;;;4.70;99.90;;;;;;5028504;28;20436;-88
2024/01/05 10:23:24;;;;;;;50.58;26.27;;;4.70;99.90;;;;;;5031900;28;20021;-87
2024/01/05 10:25:51;;;;;;;42.97;24.67;;;4.70;99.90;;;;;;5028896;28;20386;-87
2024/01/05 10:28:37;;;;;;;53.97;24.48;;;4.70;99.90;;;;;;5025474;28;20025;-88
2024/01/05 10:31:13;;;;;;;;;;;4.60;99.90;;;;;;5027663;28;20025;-89
2024/01/05 10:33:51;;;;;;;50.05;26.13;;;4.70;99.90;;;;;;5026479;28;19912;-86
2024/01/05 10:36:25;;;;;;;49.83;25.48;;;4.70;99.90;;;;;;5024926;28;20142;-86
2024/01/05 10:38:51;;;;;;;51.30;26.35;;;4.70;99.90;;;;;;5024094;28;20036;-85
2024/01/05 10:41:17;;;;;;;47.83;25.40;;;4.80;99.90;;;;;;5027574;28;20030;-86
2024/01/05 10:43:44;;;;;;;53.05;26.05;;;4.90;99.90;;;;;;5020794;28;20137;-90
2024/01/05 10:46:16;;;;;;;56.97;27.05;;;4.90;99.90;;;;;;5027390;28;20025;-87
2024/01/05 10:48:46;;;;;;;46.65;24.05;;;5.00;99.90;;;;;;5019259;28;20033;-86
2024/01/05 10:51:14;;;;;;;55.65;27.52;;;5.00;99.90;;;;;;5021984;28;20199;-87
2024/01/05 10:53:42;;;;;;;53.33;26.83;;;5.10;99.90;;;;;;5020704;28;20030;-84
2024/01/05 10:56:10;;;;;;;58.20;27.98;;;5.20;99.90;;;;;;5024937;28;20041;-87
2024/01/05 10:58:36;;;;;;;45.53;23.17;;;5.20;99.90;;;;;;5019138;28;20037;-87
2024/01/05 11:01:02;;;;;;;72.15;33.50;;;5.30;99.90;;;;;;5022133;28;20107;-88
2024/01/05 11:03:39;;;;;;;61.83;31.02;;;5.40;99.90;;;;;;5020337;28;20800;-89
2024/01/05 11:06:10;;;;;;;60.53;28.88;;;5.50;99.90;;;;;;5023489;28;20091;-86
2024/01/05 11:08:53;;;;;;;72.82;32.20;;;5.60;99.90;;;;;;5023404;28;20025;-87
2024/01/05 11:11:40;;;;;;;56.92;28.83;;;5.60;99.90;;;;;;5022001;28;20469;-86
2024/01/05 11:14:35;;;;;;;53.92;28.92;;;5.50;99.90;;;;;;5020529;28;20496;-86
2024/01/05 11:17:12;;;;;;;59.10;29.20;;;5.50;99.90;;;;;;5022862;28;20176;-88
2024/01/05 11:19:56;;;;;;;66.60;31.95;;;5.50;99.90;;;;;;5022793;28;20028;-87
2024/01/05 11:22:30;;;;;;;61.35;29.15;;;5.50;99.90;;;;;;5023852;28;20025;-87
2024/01/05 11:24:57;;;;;;;65.63;30.95;;;5.50;99.90;;;;;;5024257;28;20030;-86
2024/01/05 11:27:29;;;;;;;61.00;29.85;;;5.50;99.90;;;;;;5024435;28;20022;-86
2024/01/05 11:29:56;;;;;;;60.55;30.13;;;5.50;99.90;;;;;;5023171;28;20470;-88
2024/01/05 11:32:45;;;;;;;48.20;24.95;;;5.50;99.90;;;;;;5024227;28;20103;-88
2024/01/05 11:35:22;;;;;;;55.85;25.67;;;5.50;99.90;;;;;;5023701;28;20037;-85
2024/01/05 11:37:50;;;;;;;46.45;23.80;;;5.60;99.90;;;;;;5022662;28;20509;-85
2024/01/05 11:40:29;;;;;;;50.58;24.88;;;5.60;99.90;;;;;;5025202;28;20034;-86
2024/01/05 11:42:59;;;;;;;58.35;26.92;;;5.60;99.90;;;;;;5026385;28;20049;-91
2024/01/05 11:45:56;;;;;;;53.25;28.10;;;5.60;99.90;;;;;;5029960;28;20039;-86
2024/01/05 11:48:46;;;;;;;55.72;27.23;;;5.60;99.90;;;;;;5014471;28;20041;-86
2024/01/05 11:51:12;;;;;;;52.40;26.58;;;5.60;99.90;;;;;;5020867;28;20112;-87
2024/01/05 11:53:38;;;;;;;51.38;25.77;;;5.60;99.90;;;;;;5024523;28;20052;-88
2024/01/05 11:56:14;;;;;;;58.80;24.58;;;5.60;99.90;;;;;;5020995;28;20034;-88
2024/01/05 11:58:42;;;;;;;54.35;27.83;;;5.70;99.90;;;;;;5024986;28;20040;-86
2024/01/05 12:01:11;;;;;;;52.60;24.23;;;5.80;99.90;;;;;;5021606;28;20026;-88
2024/01/05 12:03:38;;;;;;;53.35;23.02;;;5.90;99.90;;;;;;5022033;28;20025;-87
2024/01/05 12:06:06;;;;;;;46.83;22.38;;;5.90;99.90;;;;;;5017960;28;20046;-88
2024/01/05 12:08:33;;;;;;;43.03;20.05;;;6.00;99.90;;;;;;5022200;28;20099;-88
2024/01/05 12:11:02;;;;;;;49.70;24.50;;;6.10;99.90;;;;;;5019149;28;20029;-87
2024/01/05 12:13:29;;;;;;;57.95;27.48;;;6.10;99.90;;;;;;5031354;28;20489;-87
2024/01/05 12:15:55;;;;;;;163.00;84.25;;;6.20;99.90;;;;;;5022032;28;20040;-88
2024/01/05 12:18:30;;;;;;;151.45;74.93;;;6.20;99.90;;;;;;5023940;28;20072;-88
2024/01/05 12:21:05;;;;;;;131.98;67.43;;;6.20;99.90;;;;;;5025014;28;20033;-87
2024/01/05 12:23:31;;;;;;;;;;;6.30;99.90;;;;;;5022155;28;20057;-90
2024/01/05 12:26:03;;;;;;;77.75;38.40;;;6.30;99.90;;;;;;5010038;28;19959;-87
2024/01/05 12:28:39;;;;;;;60.25;31.60;;;6.40;99.90;;;;;;5023031;28;20033;-86
2024/01/05 12:31:07;;;;;;;36.92;15.65;;;6.50;99.90;;;;;;5019574;28;20662;-88
2024/01/05 12:33:37;;;;;;;41.13;15.10;;;6.50;99.90;;;;;;5024425;28;20025;-86
2024/01/05 12:36:14;;;;;;;28.75;12.80;;;6.60;99.90;;;;;;5025535;28;20095;-88
2024/01/05 12:38:40;;;;;;;25.15;11.77;;;6.60;99.90;;;;;;5006835;28;20022;-88
2024/01/05 12:41:13;;;;;;;31.63;13.48;;;6.60;99.90;;;;;;5013323;28;20076;-89
2024/01/05 12:43:46;;;;;;;26.25;11.80;;;6.60;99.90;;;;;;5023782;28;20029;-89
2024/01/05 12:46:12;;;;;;;26.50;10.48;;;6.60;99.90;;;;;;5024836;28;20112;-88
2024/01/05 12:48:38;;;;;;;29.23;16.00;;;6.60;99.90;;;;;;5024372;28;20121;-92